Time;durP1;ratioP1;P1;durP2;ratioP2;P2;SDS_P1;SDS_P2;PMS_P1;PMS_P2;Temp;Humidity;BMP_temperature;BMP_pressure;BME280_temperature;BME280_humidity;BME280_pressure;Samples;Min_cycle;Max_cycle;Signal;HPM_P1;HPM_P2
2022/03/11 00:01:30;;;;;;;11.98;5.75;;;8.10;74.80;;;;;;7315423;32;20157;-60
2022/03/11 00:05:31;;;;;;;8.23;5.05;;;8.20;73.30;;;;;;7317515;32;20330;-61
2022/03/11 00:09:34;;;;;;;9.25;5.37;;;8.10;73.20;;;;;;7313036;32;20135;-60
2022/03/11 00:13:35;;;;;;;8.77;5.07;;;8.00;73.80;;;;;;7308433;32;20100;-61
2022/03/11 00:17:37;;;;;;;13.55;5.35;;;8.00;74.50;;;;;;7305574;32;20097;-61
2022/03/11 00:21:39;;;;;;;8.63;4.82;;;8.00;73.20;;;;;;7317693;32;20103;-60
2022/03/11 00:25:41;;;;;;;11.27;5.00;;;8.00;72.00;;;;;;7321513;32;20187;-60
2022/03/11 00:29:42;;;;;;;9.23;4.93;;;8.10;72.10;;;;;;7310862;32;20115;-61
2022/03/11 00:33:44;;;;;;;9.02;5.53;;;8.20;70.70;;;;;;7309973;32;20781;-61
2022/03/11 00:37:46;;;;;;;8.68;4.87;;;8.10;71.10;;;;;;7312639;32;20107;-60
2022/03/11 00:41:47;;;;;;;11.48;5.57;;;8.10;71.60;;;;;;7317973;32;20168;-60
2022/03/11 00:45:49;;;;;;;8.00;4.62;;;8.00;72.20;;;;;;7307768;32;20178;-62
2022/03/11 00:49:51;;;;;;;8.77;5.28;;;8.00;71.40;;;;;;7311317;32;20187;-60
2022/03/11 00:53:53;;;;;;;10.70;5.28;;;8.00;70.50;;;;;;7310902;32;20517;-60
2022/03/11 00:57:54;;;;;;;7.97;5.10;;;8.00;70.50;;;;;;7311614;32;20159;-61
2022/03/11 01:01:56;;;;;;;7.80;4.90;;;8.10;71.10;;;;;;7311237;32;20108;-60
2022/03/11 01:05:58;;;;;;;8.20;5.15;;;8.00;70.90;;;;;;7313195;32;20100;-60
2022/03/11 01:10:00;;;;;;;10.35;5.75;;;7.90;72.20;;;;;;7315848;32;20126;-60
2022/03/11 01:14:02;;;;;;;11.30;5.35;;;7.90;71.70;;;;;;7312841;32;20203;-61
2022/03/11 01:18:04;;;;;;;11.07;5.68;;;7.70;73.40;;;;;;7313086;32;20103;-60
2022/03/11 01:22:06;;;;;;;8.10;5.20;;;7.70;74.30;;;;;;7316596;32;20210;-61
2022/03/11 01:26:10;;;;;;;9.23;5.25;;;7.70;73.40;;;;;;7310833;32;20137;-60
2022/03/11 01:30:16;;;;;;;9.43;5.18;;;7.60;75.00;;;;;;7313053;32;20183;-61
2022/03/11 01:34:19;;;;;;;10.10;5.40;;;7.60;74.80;;;;;;7314216;32;20142;-59
2022/03/11 01:38:21;;;;;;;8.63;5.40;;;7.50;76.30;;;;;;7312131;32;20181;-59
2022/03/11 01:42:22;;;;;;;10.48;5.53;;;7.50;76.60;;;;;;7314345;32;20155;-60
2022/03/11 01:46:24;;;;;;;14.05;5.90;;;7.40;76.70;;;;;;7312918;32;20146;-62
2022/03/11 01:50:26;;;;;;;8.63;5.62;;;7.30;77.70;;;;;;7311165;32;20706;-60
2022/03/11 01:54:28;;;;;;;10.77;5.32;;;7.40;77.80;;;;;;7316152;32;20164;-60
2022/03/11 01:58:31;;;;;;;8.25;5.20;;;7.30;78.00;;;;;;7315996;32;20130;-62
2022/03/11 02:02:33;;;;;;;10.27;5.25;;;7.20;79.90;;;;;;7311422;32;20191;-61
2022/03/11 02:06:35;;;;;;;9.35;5.75;;;7.10;80.90;;;;;;7307531;32;20448;-60
2022/03/11 02:10:37;;;;;;;10.18;5.85;;;6.90;82.60;;;;;;7310947;32;22475;-60
2022/03/11 02:14:38;;;;;;;10.98;5.35;;;7.00;83.60;;;;;;7308122;32;20112;-61
2022/03/11 02:18:41;;;;;;;9.30;5.82;;;7.00;84.00;;;;;;7311418;32;20464;-60
2022/03/11 02:22:46;;;;;;;10.93;5.80;;;6.80;84.90;;;;;;7308579;32;20758;-60
2022/03/11 02:26:48;;;;;;;9.35;5.45;;;6.80;86.70;;;;;;7309221;32;20276;-60
2022/03/11 02:30:49;;;;;;;8.43;5.85;;;6.80;87.50;;;;;;7308884;32;20207;-61
2022/03/11 02:34:51;;;;;;;11.25;6.35;;;6.80;89.20;;;;;;7315279;32;20123;-60
2022/03/11 02:38:53;;;;;;;10.35;5.55;;;6.70;89.90;;;;;;7307542;32;20228;-60
2022/03/11 02:42:55;;;;;;;11.50;5.70;;;6.70;91.20;;;;;;7310455;32;20161;-61
2022/03/11 02:47:00;;;;;;;10.52;6.10;;;6.70;91.00;;;;;;7306228;32;20507;-61
2022/03/11 02:51:02;;;;;;;11.10;5.78;;;6.60;91.50;;;;;;7310900;32;20468;-61
2022/03/11 02:55:04;;;;;;;11.35;5.62;;;6.60;90.90;;;;;;7305777;32;20112;-60
2022/03/11 02:59:05;;;;;;;9.43;6.03;;;6.50;92.20;;;;;;7314948;32;20131;-61
2022/03/11 03:03:28;;;;;;;11.65;6.30;;;6.40;93.10;;;;;;7309252;32;20621;-61
2022/03/11 03:07:30;;;;;;;11.45;6.40;;;6.40;93.50;;;;;;7313753;32;20130;-60
2022/03/11 03:11:32;;;;;;;10.80;5.78;;;6.30;94.00;;;;;;7311640;32;20112;-60
2022/03/11 03:15:34;;;;;;;10.50;6.05;;;6.30;94.40;;;;;;7309482;32;20199;-60
2022/03/11 03:19:36;;;;;;;11.05;6.45;;;6.20;95.00;;;;;;7312497;32;20151;-60
2022/03/11 03:23:37;;;;;;;11.52;5.55;;;6.10;95.50;;;;;;7314007;32;20132;-60
2022/03/11 03:27:39;;;;;;;11.68;6.78;;;6.10;96.40;;;;;;7312231;32;20198;-60
2022/03/11 03:31:41;;;;;;;10.07;6.47;;;6.10;96.10;;;;;;7320069;32;20779;-60
2022/03/11 03:35:43;;;;;;;9.90;5.50;;;6.20;95.60;;;;;;7319613;32;21037;-61
2022/03/11 03:39:44;;;;;;;10.57;6.78;;;6.20;96.00;;;;;;7314027;32;20126;-61
2022/03/11 03:43:46;;;;;;;11.95;6.45;;;6.10;97.00;;;;;;7315889;32;20111;-59
2022/03/11 03:47:48;;;;;;;11.82;6.95;;;5.90;97.70;;;;;;7312357;32;20108;-60
2022/03/11 03:51:49;;;;;;;12.02;6.50;;;5.90;98.00;;;;;;7314241;32;20130;-61
2022/03/11 03:55:51;;;;;;;12.45;7.00;;;5.80;99.10;;;;;;7311106;32;20226;-60
2022/03/11 03:59:53;;;;;;;9.43;6.07;;;5.90;98.40;;;;;;7310718;32;22656;-60
2022/03/11 04:03:55;;;;;;;12.15;6.62;;;5.90;98.80;;;;;;7308083;32;20111;-60
2022/03/11 04:07:56;;;;;;;11.77;6.10;;;5.90;98.00;;;;;;7318790;32;20107;-61
2022/03/11 04:11:58;;;;;;;11.18;6.75;;;6.00;98.70;;;;;;7314607;32;20230;-61
2022/03/11 04:16:00;;;;;;;12.02;6.47;;;5.90;98.70;;;;;;7316148;32;20116;-61
2022/03/11 04:20:03;;;;;;;12.57;6.50;;;5.80;98.70;;;;;;7318392;32;20175;-60
2022/03/11 04:24:12;;;;;;;11.75;6.37;;;5.80;98.80;;;;;;7316275;32;20119;-59
2022/03/11 04:28:14;;;;;;;11.75;6.72;;;5.80;98.60;;;;;;7302450;32;20111;-60
2022/03/11 04:32:16;;;;;;;12.10;7.03;;;5.70;99.60;;;;;;7315647;32;20776;-60
2022/03/11 04:36:18;;;;;;;15.25;6.62;;;5.80;99.40;;;;;;7314934;32;20104;-60
2022/03/11 04:40:19;;;;;;;13.55;6.93;;;5.80;98.90;;;;;;7313052;32;20104;-60
2022/03/11 04:44:21;;;;;;;13.98;7.40;;;5.70;99.40;;;;;;7317747;32;20737;-60
2022/03/11 04:48:23;;;;;;;11.38;7.03;;;5.70;99.50;;;;;;7313072;32;20195;-60
2022/03/11 04:52:25;;;;;;;16.17;7.43;;;5.70;99.80;;;;;;7312766;32;20131;-60
2022/03/11 04:56:26;;;;;;;16.98;8.15;;;5.70;99.90;;;;;;7317687;32;20111;-60
2022/03/11 05:00:28;;;;;;;12.27;7.32;;;5.60;99.90;;;;;;7308074;32;20484;-60
2022/03/11 05:04:30;;;;;;;16.05;8.55;;;5.60;99.90;;;;;;7314059;32;20104;-59
2022/03/11 05:08:32;;;;;;;14.07;7.65;;;5.60;99.90;;;;;;7313663;32;20124;-59
2022/03/11 05:12:35;;;;;;;15.25;8.52;;;5.60;99.90;;;;;;7309256;32;20129;-60
2022/03/11 05:16:37;;;;;;;14.25;8.13;;;5.50;99.90;;;;;;7310768;32;20188;-60
2022/03/11 05:20:39;;;;;;;14.35;8.48;;;5.60;99.90;;;;;;7310628;32;20308;-59
2022/03/11 05:24:40;;;;;;;15.68;8.32;;;5.60;99.90;;;;;;7316349;32;20126;-60
2022/03/11 05:28:42;;;;;;;14.75;8.65;;;5.60;99.90;;;;;;7310615;32;20149;-59
2022/03/11 05:32:46;;;;;;;14.73;8.63;;;5.50;99.90;;;;;;7313727;32;20354;-60
2022/03/11 05:36:48;;;;;;;15.43;8.45;;;5.50;99.90;;;;;;7306093;32;21721;-60
2022/03/11 05:40:50;;;;;;;14.85;8.88;;;5.50;99.90;;;;;;7307123;32;20306;-60
2022/03/11 05:44:51;;;;;;;17.87;9.07;;;5.50;99.90;;;;;;7308753;32;20194;-61
2022/03/11 05:48:53;;;;;;;16.27;9.07;;;5.50;99.90;;;;;;7308190;32;20806;-61
2022/03/11 05:52:55;;;;;;;16.70;9.65;;;5.40;99.90;;;;;;7312085;32;20523;-60
2022/03/11 05:56:56;;;;;;;17.35;9.95;;;5.30;99.90;;;;;;7305479;32;20132;-60
2022/03/11 06:00:58;;;;;;;15.48;9.20;;;5.30;99.90;;;;;;7313078;32;20111;-59
2022/03/11 06:05:00;;;;;;;17.05;9.63;;;5.30;99.90;;;;;;7308780;32;20235;-60
2022/03/11 06:09:02;;;;;;;16.90;9.35;;;5.30;99.90;;;;;;7308106;32;20120;-62
2022/03/11 06:13:04;;;;;;;15.38;8.70;;;5.20;99.90;;;;;;7314883;32;20232;-61
2022/03/11 06:17:05;;;;;;;19.62;10.52;;;5.20;99.90;;;;;;7311529;32;20526;-62
2022/03/11 06:21:08;;;;;;;20.77;10.77;;;5.20;99.90;;;;;;7312080;32;20131;-60
2022/03/11 06:25:10;;;;;;;18.75;10.35;;;5.20;99.90;;;;;;7311896;32;20585;-61
2022/03/11 06:29:12;;;;;;;18.48;10.98;;;5.20;99.90;;;;;;7305148;32;21212;-60
2022/03/11 06:33:15;;;;;;;20.00;11.00;;;5.00;99.90;;;;;;7306023;32;20549;-62
2022/03/11 06:37:16;;;;;;;19.73;12.20;;;5.10;99.90;;;;;;7306192;32;20123;-60
2022/03/11 06:41:18;;;;;;;18.40;10.23;;;5.10;99.90;;;;;;7303862;32;20226;-62
2022/03/11 06:45:20;;;;;;;19.05;11.25;;;5.10;99.90;;;;;;7311170;32;20134;-62
2022/03/11 06:49:22;;;;;;;20.92;11.25;;;5.10;99.90;;;;;;7302748;32;20203;-61
2022/03/11 06:53:26;;;;;;;23.55;11.32;;;5.10;99.90;;;;;;7311011;32;20234;-61
2022/03/11 06:57:28;;;;;;;19.27;11.32;;;5.20;99.90;;;;;;7305218;32;20134;-60
2022/03/11 07:01:31;;;;;;;18.62;11.70;;;5.30;99.90;;;;;;7311242;32;20134;-61
2022/03/11 07:05:33;;;;;;;19.30;11.25;;;5.30;99.90;;;;;;7314279;32;20104;-60
2022/03/11 07:09:35;;;;;;;19.75;11.38;;;5.30;99.90;;;;;;7316678;32;20195;-61
2022/03/11 07:13:36;;;;;;;19.50;11.12;;;5.40;99.90;;;;;;7317048;32;20551;-60
2022/03/11 07:17:38;;;;;;;17.83;10.82;;;5.50;99.90;;;;;;7315182;32;20129;-61
2022/03/11 07:21:40;;;;;;;17.80;11.80;;;5.50;99.90;;;;;;7310064;32;20127;-60
2022/03/11 07:25:43;;;;;;;18.00;10.82;;;5.60;99.90;;;;;;7305814;32;20104;-60
2022/03/11 07:29:56;;;;;;;22.87;12.37;;;5.70;99.90;;;;;;7313856;32;20238;-59
2022/03/11 07:33:58;;;;;;;22.23;11.77;;;5.70;99.90;;;;;;7312699;32;20660;-59
2022/03/11 07:37:59;;;;;;;21.27;11.70;;;5.80;99.90;;;;;;7314955;32;20182;-59
2022/03/11 07:42:01;;;;;;;19.87;12.05;;;5.80;99.90;;;;;;7312781;32;20124;-60
2022/03/11 07:46:03;;;;;;;21.50;11.40;;;5.80;99.90;;;;;;7311641;32;20126;-59
2022/03/11 07:50:05;;;;;;;19.15;11.70;;;5.90;99.90;;;;;;7316207;32;20195;-60
2022/03/11 07:54:07;;;;;;;22.58;11.75;;;6.00;99.90;;;;;;7312513;32;20271;-61
2022/03/11 07:58:09;;;;;;;17.65;10.95;;;6.10;99.90;;;;;;7309175;32;20131;-59
2022/03/11 08:02:11;;;;;;;20.70;12.32;;;6.10;99.80;;;;;;7305664;32;20225;-60
2022/03/11 08:06:13;;;;;;;19.83;10.90;;;6.10;99.90;;;;;;7308431;32;20249;-60
2022/03/11 08:10:16;;;;;;;19.80;11.75;;;6.20;99.40;;;;;;7314784;32;20131;-59
2022/03/11 08:14:17;;;;;;;22.30;12.37;;;6.40;97.80;;;;;;7314232;32;20150;-60
2022/03/11 08:18:20;;;;;;;18.00;11.63;;;6.40;98.00;;;;;;7312671;32;20198;-60
2022/03/11 08:22:22;;;;;;;18.95;12.07;;;6.40;98.50;;;;;;7317683;32;20112;-59
2022/03/11 08:26:26;;;;;;;20.95;12.82;;;6.60;97.50;;;;;;7315347;32;20102;-59
2022/03/11 08:30:29;;;;;;;19.80;12.02;;;6.60;97.20;;;;;;7316975;32;20111;-61
2022/03/11 08:34:31;;;;;;;18.75;11.18;;;6.70;97.20;;;;;;7305072;32;20107;-62
2022/03/11 08:38:52;;;;;;;20.75;11.82;;;6.90;97.00;;;;;;7312425;32;20112;-61
2022/03/11 08:42:55;;;;;;;19.05;11.80;;;7.10;95.90;;;;;;7310980;32;20995;-59
2022/03/11 08:46:57;;;;;;;20.85;12.93;;;7.20;94.70;;;;;;7317305;32;20525;-60
2022/03/11 08:50:58;;;;;;;19.17;11.40;;;7.40;94.20;;;;;;7325132;32;20835;-59
2022/03/11 08:55:00;;;;;;;24.23;11.70;;;8.00;91.80;;;;;;7311168;32;20129;-61
2022/03/11 08:59:02;;;;;;;16.62;10.80;;;8.70;88.90;;;;;;7314824;32;20126;-59
2022/03/11 09:03:04;;;;;;;22.87;13.05;;;9.30;81.10;;;;;;7313191;32;20683;-61
2022/03/11 09:07:10;;;;;;;19.20;11.18;;;9.60;79.40;;;;;;7311800;32;20321;-60
2022/03/11 09:11:11;;;;;;;15.43;11.25;;;10.10;77.70;;;;;;7310825;32;20230;-60
2022/03/11 09:15:15;;;;;;;17.73;11.35;;;10.60;72.80;;;;;;7310761;32;21569;-60
2022/03/11 09:19:17;;;;;;;16.27;11.57;;;11.10;69.90;;;;;;7304203;32;20246;-60
2022/03/11 09:23:18;;;;;;;21.17;12.27;;;11.40;73.90;;;;;;7308444;32;20235;-61
2022/03/11 09:27:23;;;;;;;18.58;11.93;;;11.80;64.70;;;;;;7312928;32;20104;-60
2022/03/11 09:31:25;;;;;;;16.83;11.50;;;12.20;61.30;;;;;;7302770;32;20219;-62
2022/03/11 09:35:27;;;;;;;17.85;12.13;;;12.50;61.40;;;;;;7311089;32;20591;-62
2022/03/11 09:39:28;;;;;;;17.35;11.82;;;13.30;59.00;;;;;;7308852;32;20137;-58
2022/03/11 09:43:30;;;;;;;19.35;12.40;;;13.50;58.10;;;;;;7305026;32;20232;-60
2022/03/11 09:47:33;;;;;;;17.15;12.15;;;13.10;56.50;;;;;;7309862;32;20107;-61
2022/03/11 09:51:35;;;;;;;17.70;12.00;;;13.20;56.40;;;;;;7323352;32;20126;-62
2022/03/11 09:55:39;;;;;;;17.37;12.00;;;13.40;55.10;;;;;;7311550;32;20124;-61
2022/03/11 09:59:41;;;;;;;17.15;11.90;;;14.00;54.30;;;;;;7306417;32;20117;-61
2022/03/11 10:03:57;;;;;;;20.37;13.30;;;15.60;53.70;;;;;;7313344;32;20107;-61
2022/03/11 10:08:01;;;;;;;20.25;12.57;;;15.80;50.40;;;;;;7307058;32;20138;-61
2022/03/11 10:12:05;;;;;;;19.25;12.95;;;16.60;48.80;;;;;;7309591;32;20194;-58
2022/03/11 10:16:37;;;;;;;16.40;12.50;;;16.90;47.80;;;;;;7306827;32;20104;-61
2022/03/11 10:20:39;;;;;;;21.60;13.60;;;17.30;45.60;;;;;;7299293;32;20178;-60
2022/03/11 10:24:41;;;;;;;17.12;12.32;;;16.60;44.90;;;;;;7307321;32;20112;-62
2022/03/11 10:28:55;;;;;;;19.60;13.32;;;17.40;46.20;;;;;;7310304;32;20135;-57
2022/03/11 10:32:59;;;;;;;18.62;13.23;;;18.00;44.20;;;;;;7310441;32;20671;-57
2022/03/11 10:37:06;;;;;;;14.10;12.02;;;17.70;44.80;;;;;;7313599;32;20137;-59
2022/03/11 10:41:11;;;;;;;16.52;12.70;;;18.10;43.20;;;;;;7321961;32;20131;-63
2022/03/11 10:45:14;;;;;;;15.70;12.57;;;18.50;43.40;;;;;;7313913;32;20615;-61
2022/03/11 10:49:34;;;;;;;17.12;13.38;;;18.10;41.70;;;;;;7322153;32;20202;-61
2022/03/11 10:53:38;;;;;;;17.05;12.37;;;17.30;43.60;;;;;;7314472;32;20198;-61
2022/03/11 10:57:41;;;;;;;17.83;12.52;;;15.40;46.00;;;;;;7315864;32;20134;-61
2022/03/11 11:01:44;;;;;;;17.37;12.98;;;14.10;50.10;;;;;;7315897;32;20115;-62
2022/03/11 11:05:48;;;;;;;16.98;11.68;;;13.50;51.10;;;;;;7314252;32;20230;-61
2022/03/11 11:09:50;;;;;;;17.37;11.68;;;12.70;51.80;;;;;;7317638;32;20107;-60
2022/03/11 11:13:51;;;;;;;17.58;11.75;;;12.50;54.00;;;;;;7315136;32;20447;-60
2022/03/11 11:17:54;;;;;;;21.12;12.30;;;12.30;53.60;;;;;;7314552;32;20108;-59
2022/03/11 11:21:57;;;;;;;20.62;12.18;;;12.30;55.70;;;;;;7315587;32;20215;-61
2022/03/11 11:25:59;;;;;;;18.00;11.95;;;12.30;56.90;;;;;;7314725;32;20157;-59
2022/03/11 11:30:05;;;;;;;18.00;11.43;;;12.20;55.40;;;;;;7315698;32;20206;-62
2022/03/11 11:34:33;;;;;;;16.23;11.73;;;12.50;55.30;;;;;;7312393;32;20688;-61
2022/03/11 11:38:37;;;;;;;17.20;11.23;;;13.40;54.40;;;;;;7307853;32;20112;-60
2022/03/11 11:42:39;;;;;;;15.35;11.15;;;14.20;53.60;;;;;;7314057;32;20556;-61
2022/03/11 11:46:40;;;;;;;17.62;11.63;;;14.40;52.00;;;;;;7311118;32;20535;-61
2022/03/11 11:50:44;;;;;;;17.33;11.57;;;15.40;51.50;;;;;;7312064;32;20528;-61
2022/03/11 11:54:45;;;;;;;15.93;10.50;;;16.00;49.60;;;;;;7317695;32;20163;-62
2022/03/11 11:58:56;;;;;;;17.20;11.23;;;16.60;48.70;;;;;;7308198;32;20103;-61
2022/03/11 12:02:59;;;;;;;17.87;11.68;;;16.80;47.90;;;;;;7311176;32;20128;-62
2022/03/11 12:07:09;;;;;;;16.40;11.27;;;16.70;46.90;;;;;;7310297;32;20282;-62
2022/03/11 12:11:10;;;;;;;18.40;11.82;;;17.10;48.50;;;;;;7312191;32;20147;-61
2022/03/11 12:15:18;;;;;;;14.83;11.43;;;16.50;47.10;;;;;;7311888;32;20265;-62
2022/03/11 12:19:44;;;;;;;13.95;11.23;;;17.00;47.60;;;;;;7315712;32;20116;-61
2022/03/11 12:23:46;;;;;;;20.25;11.88;;;17.30;47.20;;;;;;7311795;32;20108;-61
2022/03/11 12:28:07;;;;;;;15.38;11.98;;;17.80;46.60;;;;;;7302854;32;20202;-62
2022/03/11 12:32:13;;;;;;;14.35;10.90;;;17.30;46.70;;;;;;7310127;32;20141;-62
2022/03/11 12:36:21;;;;;;;19.92;12.15;;;17.20;47.20;;;;;;7311266;32;20107;-60
2022/03/11 12:40:24;;;;;;;17.48;11.20;;;16.80;48.20;;;;;;7314278;32;20107;-60
2022/03/11 12:44:25;;;;;;;25.55;12.20;;;16.10;49.80;;;;;;7307540;32;20440;-60
2022/03/11 12:48:39;;;;;;;15.85;10.90;;;16.10;50.00;;;;;;7306748;32;20547;-60
2022/03/11 12:52:41;;;;;;;14.82;10.27;;;15.90;51.60;;;;;;7306425;32;20546;-62
2022/03/11 12:56:42;;;;;;;15.95;10.70;;;16.00;50.70;;;;;;7312135;32;20131;-60
2022/03/11 13:00:44;;;;;;;16.90;12.00;;;16.00;51.10;;;;;;7320559;32;20724;-62
2022/03/11 13:04:46;;;;;;;14.80;11.12;;;16.20;51.50;;;;;;7303156;32;20214;-62
2022/03/11 13:09:08;;;;;;;20.30;10.88;;;15.90;51.40;;;;;;7305014;32;20262;-61
2022/03/11 13:13:11;;;;;;;14.65;10.25;;;16.10;51.20;;;;;;7306583;32;20450;-60
2022/03/11 13:17:13;;;;;;;18.55;10.73;;;16.20;51.50;;;;;;7320706;32;20125;-62
2022/03/11 13:21:17;;;;;;;14.30;10.27;;;16.70;52.00;;;;;;7311920;32;20131;-63
2022/03/11 13:25:29;;;;;;;15.15;10.95;;;16.90;50.20;;;;;;7314392;32;20250;-61
2022/03/11 13:29:41;;;;;;;14.57;10.05;;;16.70;50.70;;;;;;7320021;32;20143;-60
2022/03/11 13:33:45;;;;;;;14.85;10.23;;;17.10;50.50;;;;;;7308374;32;20180;-61
2022/03/11 13:37:47;;;;;;;14.68;10.25;;;17.50;49.10;;;;;;7307619;32;20206;-62
2022/03/11 13:42:08;;;;;;;14.43;10.10;;;17.60;48.10;;;;;;7312531;32;20284;-60
2022/03/11 13:46:10;;;;;;;15.77;11.20;;;17.50;47.80;;;;;;7306232;32;20210;-60
2022/03/11 13:50:13;;;;;;;16.95;10.30;;;17.90;46.90;;;;;;7308580;32;20214;-61
2022/03/11 13:54:34;;;;;;;15.88;10.52;;;18.00;48.10;;;;;;7312047;32;20135;-60
2022/03/11 13:58:36;;;;;;;16.80;10.90;;;18.50;45.00;;;;;;7310875;32;20198;-61
2022/03/11 14:02:38;;;;;;;16.73;11.68;;;18.80;45.20;;;;;;7304150;32;20112;-61
2022/03/11 14:06:40;;;;;;;20.80;11.90;;;19.30;44.50;;;;;;7308864;32;20163;-59
2022/03/11 14:10:45;;;;;;;16.23;11.48;;;18.50;44.60;;;;;;7310440;32;20134;-59
2022/03/11 14:14:47;;;;;;;16.73;12.07;;;18.50;45.80;;;;;;7306249;32;22137;-59
2022/03/11 14:18:48;;;;;;;19.35;11.35;;;18.70;44.10;;;;;;7312459;32;21870;-59
2022/03/11 14:22:50;;;;;;;18.70;12.13;;;18.70;45.00;;;;;;7305726;32;20204;-59
2022/03/11 14:26:52;;;;;;;18.05;11.93;;;19.10;42.60;;;;;;7310861;32;20253;-61
2022/03/11 14:30:54;;;;;;;17.40;11.25;;;19.10;42.90;;;;;;7310909;32;20239;-60
2022/03/11 14:34:56;;;;;;;18.10;11.88;;;18.90;42.40;;;;;;7311405;32;20193;-61
2022/03/11 14:38:58;;;;;;;19.98;12.45;;;19.30;42.30;;;;;;7311416;32;20190;-61
2022/03/11 14:43:00;;;;;;;16.58;11.40;;;19.10;40.80;;;;;;7313792;32;20111;-62
2022/03/11 14:47:02;;;;;;;16.25;10.95;;;18.70;40.90;;;;;;7313784;32;20173;-58
2022/03/11 14:51:05;;;;;;;18.80;11.68;;;18.30;42.00;;;;;;7308072;32;20112;-58
2022/03/11 14:55:09;;;;;;;18.65;11.80;;;17.70;43.10;;;;;;7308532;32;20240;-58
2022/03/11 14:59:10;;;;;;;17.83;11.57;;;16.90;44.80;;;;;;7308473;32;20107;-60
2022/03/11 15:03:12;;;;;;;16.08;11.75;;;15.90;46.20;;;;;;7312060;32;20116;-60
2022/03/11 15:07:14;;;;;;;16.73;10.80;;;15.60;47.80;;;;;;7311979;32;20222;-62
2022/03/11 15:11:16;;;;;;;20.30;11.52;;;15.40;48.10;;;;;;7313006;32;20262;-62
2022/03/11 15:15:18;;;;;;;14.77;10.30;;;15.10;48.90;;;;;;7305624;32;20219;-60
2022/03/11 15:19:20;;;;;;;19.08;11.60;;;14.90;47.80;;;;;;7313289;32;20864;-60
2022/03/11 15:23:22;;;;;;;18.85;11.20;;;14.60;49.50;;;;;;7309772;32;20519;-60
2022/03/11 15:27:23;;;;;;;17.48;10.82;;;14.40;49.50;;;;;;7317942;32;20119;-61
2022/03/11 15:31:29;;;;;;;16.60;11.30;;;14.40;49.20;;;;;;7314166;32;20151;-61
2022/03/11 15:35:31;;;;;;;17.17;10.70;;;14.40;48.80;;;;;;7306086;32;20229;-59
2022/03/11 15:39:32;;;;;;;17.20;10.43;;;14.30;49.90;;;;;;7316137;32;20171;-60
2022/03/11 15:43:34;;;;;;;18.25;11.10;;;14.10;50.00;;;;;;7316173;32;20144;-58
2022/03/11 15:47:36;;;;;;;16.65;10.98;;;14.10;50.30;;;;;;7314074;32;20122;-61
2022/03/11 15:51:38;;;;;;;14.87;10.20;;;14.10;49.80;;;;;;7310112;32;20836;-58
2022/03/11 15:55:39;;;;;;;15.48;9.80;;;13.90;49.90;;;;;;7312622;32;20501;-60
2022/03/11 15:59:41;;;;;;;16.50;9.73;;;13.90;50.50;;;;;;7315531;32;20524;-60
2022/03/11 16:04:03;;;;;;;16.92;10.07;;;13.70;50.80;;;;;;7313169;32;20108;-60
2022/03/11 16:08:06;;;;;;;15.93;9.48;;;13.50;51.00;;;;;;7313799;32;20214;-59
2022/03/11 16:12:08;;;;;;;15.60;9.50;;;13.40;51.60;;;;;;7314959;32;20212;-59
2022/03/11 16:16:14;;;;;;;15.90;10.23;;;13.30;52.00;;;;;;7308934;32;20150;-60
2022/03/11 16:20:16;;;;;;;15.00;9.27;;;13.10;51.60;;;;;;7312177;32;20127;-61
2022/03/11 16:24:18;;;;;;;12.40;9.05;;;13.00;52.50;;;;;;7314367;32;20269;-60
2022/03/11 16:28:33;;;;;;;17.52;9.55;;;12.80;53.20;;;;;;7308859;32;20105;-61
2022/03/11 16:32:46;;;;;;;13.93;8.60;;;12.60;53.60;;;;;;7312007;32;20103;-58
2022/03/11 16:36:48;;;;;;;17.17;9.70;;;12.40;54.10;;;;;;7312295;32;20490;-59
2022/03/11 16:40:51;;;;;;;13.85;8.70;;;12.30;53.70;;;;;;7311872;32;20100;-59
2022/03/11 16:44:53;;;;;;;14.52;9.15;;;12.20;53.80;;;;;;7312086;32;20213;-60
2022/03/11 16:48:55;;;;;;;14.38;9.07;;;11.90;54.50;;;;;;7312661;32;20194;-59
2022/03/11 16:52:57;;;;;;;14.75;8.98;;;11.90;55.00;;;;;;7307667;32;20118;-58
2022/03/11 16:56:59;;;;;;;17.62;9.90;;;11.70;54.70;;;;;;7314821;32;20240;-60
2022/03/11 17:01:00;;;;;;;14.85;8.35;;;11.60;55.80;;;;;;7309926;32;20107;-58
2022/03/11 17:05:03;;;;;;;11.88;8.25;;;11.60;55.70;;;;;;7306195;32;20711;-60
2022/03/11 17:09:06;;;;;;;15.52;9.70;;;11.40;56.10;;;;;;7308550;32;20208;-58
2022/03/11 17:13:09;;;;;;;13.45;8.45;;;11.40;55.10;;;;;;7305607;32;20828;-61
2022/03/11 17:17:10;;;;;;;18.25;8.15;;;11.30;56.30;;;;;;7317672;32;20092;-61
2022/03/11 17:21:12;;;;;;;17.62;8.43;;;11.10;56.60;;;;;;7312985;32;20575;-59
2022/03/11 17:25:14;;;;;;;15.75;8.93;;;11.00;56.10;;;;;;7309401;32;20126;-60
2022/03/11 17:29:16;;;;;;;15.23;9.10;;;11.00;55.90;;;;;;7309443;32;20095;-60
2022/03/11 17:33:18;;;;;;;16.30;9.27;;;10.80;56.10;;;;;;7311034;32;20556;-60
2022/03/11 17:37:20;;;;;;;14.63;8.30;;;10.70;56.50;;;;;;7309946;32;20198;-60
2022/03/11 17:41:22;;;;;;;13.38;8.38;;;10.70;56.70;;;;;;7304421;32;20197;-60
2022/03/11 17:45:25;;;;;;;12.93;7.97;;;10.50;57.00;;;;;;7309215;32;20295;-59
2022/03/11 17:49:28;;;;;;;10.75;7.87;;;10.50;57.10;;;;;;7310683;32;20096;-60
2022/03/11 17:53:30;;;;;;;13.43;8.02;;;10.40;57.00;;;;;;7310290;32;20130;-60
2022/03/11 17:57:32;;;;;;;17.55;8.27;;;10.40;57.00;;;;;;7314616;32;21104;-62
2022/03/11 18:01:34;;;;;;;13.95;7.55;;;10.40;56.50;;;;;;7310662;32;20108;-60
2022/03/11 18:05:36;;;;;;;13.13;8.38;;;10.30;56.80;;;;;;7308271;32;20218;-60
2022/03/11 18:09:39;;;;;;;13.25;7.93;;;10.20;56.90;;;;;;7307813;32;20864;-60
2022/03/11 18:13:40;;;;;;;12.82;8.05;;;10.20;57.40;;;;;;7311783;32;20518;-60
2022/03/11 18:17:42;;;;;;;13.35;7.70;;;10.20;57.00;;;;;;7313504;32;20103;-60
2022/03/11 18:21:44;;;;;;;14.93;8.15;;;10.00;57.80;;;;;;7309229;32;20092;-60
2022/03/11 18:25:46;;;;;;;14.43;7.45;;;10.10;57.20;;;;;;7310200;32;20099;-60
2022/03/11 18:29:49;;;;;;;11.40;7.20;;;10.00;56.90;;;;;;7305828;32;20284;-62
2022/03/11 18:33:51;;;;;;;11.68;7.50;;;10.00;57.80;;;;;;7314331;32;20131;-60
2022/03/11 18:37:53;;;;;;;15.75;7.85;;;10.00;56.50;;;;;;7310614;32;20671;-60
2022/03/11 18:41:56;;;;;;;14.00;8.40;;;9.90;56.70;;;;;;7305081;32;20194;-59
2022/03/11 18:45:57;;;;;;;10.80;7.50;;;9.80;57.10;;;;;;7307485;32;20103;-60
2022/03/11 18:49:59;;;;;;;13.73;8.30;;;9.90;56.50;;;;;;7311872;32;20493;-60
2022/03/11 18:54:01;;;;;;;14.60;8.05;;;9.80;56.70;;;;;;7310527;32;20821;-59
2022/03/11 18:58:03;;;;;;;14.75;7.90;;;9.70;57.00;;;;;;7316974;32;20672;-59
2022/03/11 19:02:05;;;;;;;12.10;8.05;;;9.70;56.80;;;;;;7318770;32;20103;-58
2022/03/11 19:06:07;;;;;;;13.02;7.18;;;9.70;56.50;;;;;;7313971;32;20225;-60
2022/03/11 19:10:09;;;;;;;13.38;7.85;;;9.70;55.30;;;;;;7311109;32;20448;-60
2022/03/11 19:14:11;;;;;;;13.73;7.10;;;9.70;55.60;;;;;;7319137;32;20129;-61
2022/03/11 19:18:13;;;;;;;10.65;6.57;;;9.70;55.80;;;;;;7308510;32;20147;-60
2022/03/11 19:22:15;;;;;;;15.48;7.40;;;9.70;58.80;;;;;;7309240;32;20553;-59
2022/03/11 19:26:17;;;;;;;14.07;7.10;;;9.80;55.30;;;;;;7315465;32;20111;-58
2022/03/11 19:30:40;;;;;;;11.05;6.82;;;9.90;55.30;;;;;;7310530;32;20551;-60
2022/03/11 19:34:44;;;;;;;15.02;6.35;;;9.90;53.80;;;;;;7312706;32;20783;-60
2022/03/11 19:38:47;;;;;;;10.15;6.65;;;9.90;53.40;;;;;;7313715;32;20120;-60
2022/03/11 19:42:49;;;;;;;9.70;6.10;;;9.90;54.00;;;;;;7317022;32;20226;-60
2022/03/11 19:46:59;;;;;;;11.82;6.20;;;10.00;52.70;;;;;;7312433;32;20194;-62
2022/03/11 19:51:08;;;;;;;12.05;6.47;;;9.90;52.30;;;;;;7318930;32;20131;-60
2022/03/11 19:55:11;;;;;;;10.18;6.35;;;9.90;52.40;;;;;;7315230;32;20227;-61
2022/03/11 19:59:13;;;;;;;9.48;5.80;;;9.80;52.70;;;;;;7306095;32;20096;-60
2022/03/11 20:03:16;;;;;;;8.75;6.00;;;9.80;52.40;;;;;;7309376;32;20312;-60
2022/03/11 20:07:21;;;;;;;10.68;5.60;;;9.70;52.70;;;;;;7314786;32;20496;-60
2022/03/11 20:11:25;;;;;;;10.48;6.03;;;9.80;51.50;;;;;;7310713;32;20416;-60
2022/03/11 20:15:28;;;;;;;9.88;6.10;;;9.80;51.80;;;;;;7316402;32;21957;-60
2022/03/11 20:19:30;;;;;;;9.85;5.28;;;9.70;52.00;;;;;;7312460;32;20205;-61
2022/03/11 20:23:31;;;;;;;9.50;5.28;;;9.60;52.30;;;;;;7315242;32;20108;-62
2022/03/11 20:27:34;;;;;;;14.85;5.43;;;9.70;51.60;;;;;;7307047;32;20199;-59
2022/03/11 20:31:37;;;;;;;11.88;5.43;;;9.60;51.50;;;;;;7310947;32;20093;-60
2022/03/11 20:35:42;;;;;;;9.52;5.43;;;9.60;50.40;;;;;;7310749;32;20186;-60
2022/03/11 20:39:44;;;;;;;9.15;5.07;;;9.60;52.30;;;;;;7314376;32;20172;-60
2022/03/11 20:43:45;;;;;;;8.15;4.87;;;9.80;53.10;;;;;;7317238;32;20169;-60
2022/03/11 20:47:47;;;;;;;9.35;5.32;;;9.60;50.90;;;;;;7310560;32;20116;-61
2022/03/11 20:51:49;;;;;;;6.22;4.50;;;9.60;50.90;;;;;;7306479;32;20296;-60